This is the latest recevied weather packets stored in our database for station/object KB6HGN. If no packets are shown the sender has not sent any weather packets the latest 10 day(s).
| Time | Temp. | Humidity | Pressure | Rain* | Wind** | Luminosity | Snow |
|---|---|---|---|---|---|---|---|
| 1778183404 | 27.22° C | 36% | 1015.2 hPa | 0 mm | - | 920 W/m² | - |
| 1778183104 | 27.22° C | 35% | 1015.6 hPa | 0 mm | - | 920 W/m² | - |
| 1778182805 | 26.67° C | 36% | 1015.5 hPa | 0 mm | - | 920 W/m² | - |
| 1778181904 | 26.11° C | 37% | 1015.6 hPa | 0 mm | - | 927 W/m² | - |
| 1778179804 | 25° C | 38% | 1016.2 hPa | 0 mm | - | 894 W/m² | - |
| 1778179504 | 25° C | 40% | 1016.2 hPa | 0 mm | - | 898 W/m² | - |
| 1778178005 | 24.44° C | 41% | 1016.2 hPa | 0 mm | - | 876 W/m² | - |
| 1778175604 | 22.78° C | 44% | 1016.6 hPa | 0 mm | - | 814 W/m² | - |
| 1778173504 | 22.22° C | 49% | 1016.9 hPa | 0 mm | - | 733 W/m² | - |
| 1778172605 | 21.11° C | 54% | 1016.9 hPa | 0 mm | - | 693 W/m² | - |
| 1778164804 | 16.11° C | 73% | 1017.3 hPa | 0 mm | - | 149 W/m² | - |
| 1778163304 | 15° C | 77% | 1017.3 hPa | 0 mm | - | 73 W/m² | - |
| 1778161804 | 14.44° C | 80% | 1016.9 hPa | 0 mm | - | 25 W/m² | - |
| 1778160004 | 13.33° C | 80% | 1016.6 hPa | 0 mm | - | 2 W/m² | - |
| 1778159405 | 13.33° C | 80% | 1016.6 hPa | 0 mm | - | 0 W/m² | - |
| 1778158204 | 13.33° C | 80% | 1016.6 hPa | 0 mm | - | 0 W/m² | - |
| 1778153704 | 13.33° C | 79% | 1016.6 hPa | 0 mm | - | 0 W/m² | - |
| 1778153404 | 13.33° C | 79% | 1016.9 hPa | 0 mm | - | 0 W/m² | - |
| 1778153104 | 13.33° C | 78% | 1016.9 hPa | 0 mm | - | 0 W/m² | - |
| 1778152504 | 13.33° C | 78% | 1016.9 hPa | 0 mm | - | 0 W/m² | - |
| 1778151604 | 13.33° C | 77% | 1016.9 hPa | 0 mm | - | 0 W/m² | - |
| 1778148904 | 13.89° C | 76% | 1017.3 hPa | 0 mm | - | 0 W/m² | - |
| 1778145905 | 14.44° C | 74% | 1017.6 hPa | 0 mm | - | 0 W/m² | - |
| 1778143206 | 14.44° C | 73% | 1017.9 hPa | 0 mm | - | 0 W/m² | - |
| 1778139904 | 15° C | 70% | 1017.6 hPa | 0 mm | - | 0 W/m² | - |
* Rain latest hour (hover to see other rain measurements)
** Current wind speed in m/s (hover to see current wind gust speed)